createdAt,value
2017-03-25T00:01:55.153Z,82.12
2017-03-25T00:06:51.402Z,82.40
2017-03-25T00:11:47.887Z,82.93
2017-03-25T00:16:44.933Z,82.65
2017-03-25T00:21:41.460Z,83.50
2017-03-25T00:26:37.578Z,84.07
2017-03-25T00:31:34.273Z,84.45
2017-03-25T00:36:30.653Z,84.36
2017-03-25T00:41:27.034Z,84.36
2017-03-25T00:46:23.614Z,84.45
2017-03-25T00:51:19.901Z,84.26
2017-03-25T00:56:16.254Z,84.17
2017-03-25T01:01:12.610Z,84.88
2017-03-25T01:06:09.079Z,84.98
2017-03-25T01:11:05.775Z,85.45
2017-03-25T01:16:02.096Z,84.98
2017-03-25T01:20:58.414Z,85.17
2017-03-25T01:25:54.714Z,85.26
2017-03-25T01:30:51.075Z,85.74
2017-03-25T01:35:47.637Z,86.30
2017-03-25T01:40:43.976Z,86.40
2017-03-25T01:45:40.444Z,86.02
2017-03-25T01:50:36.976Z,86.40
2017-03-25T01:55:33.403Z,86.11
2017-03-25T02:00:29.704Z,86.30
2017-03-25T02:05:26.015Z,86.21
2017-03-25T02:10:22.650Z,87.16
2017-03-25T02:15:19.875Z,86.87
2017-03-25T02:20:16.158Z,87.45
2017-03-25T02:25:13.223Z,87.16
2017-03-25T02:30:09.517Z,86.93
2017-03-25T02:35:05.865Z,86.64
2017-03-25T02:40:02.447Z,87.12
2017-03-25T02:44:58.761Z,87.49
2017-03-25T02:49:55.220Z,87.02
2017-03-25T02:54:51.671Z,87.87
2017-03-25T02:59:48.025Z,87.59
2017-03-25T03:04:44.538Z,87.59
2017-03-25T03:09:40.776Z,88.63
2017-03-25T03:14:37.035Z,88.44
2017-03-25T03:19:33.242Z,88.44
2017-03-25T03:24:29.826Z,88.35
2017-03-25T03:29:26.280Z,89.20
2017-03-25T03:34:23.736Z,89.20
2017-03-25T03:39:20.205Z,89.77
2017-03-25T03:44:16.594Z,89.48
2017-03-25T03:49:13.052Z,89.96
2017-03-25T03:54:09.287Z,90.24
2017-03-25T03:59:06.472Z,89.86
2017-03-25T04:04:03.511Z,90.24
2017-03-25T04:08:59.727Z,90.62
2017-03-25T04:13:56.862Z,90.29
2017-03-25T04:18:53.989Z,91.05
2017-03-25T04:23:50.365Z,91.33
2017-03-25T04:28:46.701Z,91.05
2017-03-25T04:33:43.163Z,91.52
2017-03-25T04:38:39.548Z,91.52
2017-03-25T04:43:36.286Z,91.90
2017-03-25T04:48:33.523Z,91.71
2017-03-25T04:53:29.537Z,91.52
2017-03-25T04:58:25.821Z,92.28
2017-03-25T05:03:22.523Z,92.38
2017-03-25T05:08:18.761Z,92.76
2017-03-25T05:13:15.842Z,91.90
2017-03-25T05:18:12.107Z,91.71
2017-03-25T05:23:08.497Z,91.90
2017-03-25T05:28:05.249Z,91.62
2017-03-25T05:33:01.488Z,91.24
2017-03-25T05:37:57.927Z,91.00
2017-03-25T05:42:54.459Z,90.91
2017-03-25T05:47:51.423Z,90.72
2017-03-25T05:52:47.823Z,91.00
2017-03-25T05:57:44.493Z,91.28
2017-03-25T06:02:40.826Z,91.19
2017-03-25T06:07:37.441Z,90.34
2017-03-25T06:12:33.985Z,90.62
2017-03-25T06:17:30.644Z,89.58
2017-03-25T06:22:27.019Z,89.58
2017-03-25T06:27:24.466Z,88.39
2017-03-25T06:32:21.346Z,87.63
2017-03-25T06:37:17.862Z,86.97
2017-03-25T06:42:14.682Z,84.55
2017-03-25T06:47:11.306Z,83.07
2017-03-25T06:52:07.783Z,82.21
2017-03-25T06:57:04.799Z,80.26
2017-03-25T07:02:01.555Z,76.59
2017-03-25T07:06:58.999Z,75.78
2017-03-25T07:11:55.887Z,72.64
2017-03-25T07:16:52.191Z,72.99
2017-03-25T07:21:49.898Z,77.12
2017-03-25T07:26:46.032Z,77.12
2017-03-25T07:31:42.435Z,72.60
2017-03-25T07:36:40.513Z,65.51
2017-03-25T07:41:38.134Z,65.45
2017-03-25T07:46:35.204Z,61.86
2017-03-25T07:51:31.887Z,59.23
2017-03-25T07:56:29.197Z,55.21
2017-03-25T08:01:26.590Z,51.33
2017-03-25T08:06:24.143Z,51.40
2017-03-25T08:11:20.730Z,51.76
2017-03-25T08:16:17.318Z,52.90
2017-03-25T08:21:14.662Z,51.78
2017-03-25T08:26:11.329Z,50.09
2017-03-25T08:31:08.045Z,51.47
2017-03-25T08:36:04.375Z,54.52
2017-03-25T08:41:01.208Z,53.56
2017-03-25T08:45:57.333Z,55.44
2017-03-25T08:50:53.504Z,55.83
2017-03-25T08:55:49.887Z,55.47
2017-03-25T09:00:46.701Z,55.16
2017-03-25T09:05:43.181Z,53.47
2017-03-25T09:10:39.720Z,52.90
2017-03-25T09:15:36.602Z,52.42
2017-03-25T09:20:33.133Z,52.04
2017-03-25T09:25:29.745Z,51.21
2017-03-25T09:30:26.992Z,48.66
2017-03-25T09:35:23.652Z,51.02
2017-03-25T09:40:20.295Z,48.78
2017-03-25T09:45:17.172Z,48.39
2017-03-25T09:50:14.851Z,47.80
2017-03-25T09:55:11.603Z,48.30
2017-03-25T10:00:08.242Z,44.53
2017-03-25T10:05:05.522Z,46.32
2017-03-25T10:10:02.231Z,45.65
2017-03-25T10:14:59.479Z,44.02
2017-03-25T10:19:56.165Z,43.55
2017-03-25T10:24:52.825Z,43.33
2017-03-25T10:29:49.098Z,41.06
2017-03-25T10:34:46.584Z,37.85
2017-03-25T10:39:44.580Z,37.84
2017-03-25T10:44:40.576Z,35.43
2017-03-25T10:49:36.254Z,33.60
2017-03-25T10:54:33.022Z,34.20
2017-03-25T10:59:31.114Z,30.80
2017-03-25T11:04:28.465Z,29.36
2017-03-25T11:09:26.052Z,29.95
2017-03-25T11:14:25.745Z,28.83
2017-03-25T11:19:23.217Z,28.00
2017-03-25T11:24:23.378Z,29.61
2017-03-25T11:29:19.854Z,27.00
2017-03-25T11:34:16.695Z,28.96
2017-03-25T11:39:13.608Z,25.97
2017-03-25T11:44:10.231Z,26.53
2017-03-25T11:49:07.076Z,25.85
2017-03-25T11:54:04.088Z,23.01
2017-03-25T11:59:01.293Z,23.11
2017-03-25T12:03:57.933Z,23.68
2017-03-25T12:13:56.041Z,21.18
2017-03-25T12:18:58.092Z,21.21
2017-03-25T12:23:53.845Z,20.17
2017-03-25T12:28:51.748Z,20.14
2017-03-25T12:33:51.045Z,20.89
2017-03-25T12:38:46.069Z,22.14
2017-03-25T12:43:41.627Z,19.75
2017-03-25T12:48:38.348Z,19.45
2017-03-25T12:53:33.138Z,21.81
2017-03-25T12:58:28.024Z,21.61
2017-03-25T13:03:24.537Z,20.38
2017-03-25T13:08:21.329Z,19.05
2017-03-25T13:13:18.136Z,20.48
2017-03-25T13:18:14.682Z,18.09
2017-03-25T13:23:13.075Z,18.08
2017-03-25T13:28:11.181Z,19.42
2017-03-25T13:33:07.723Z,19.18
2017-03-25T13:38:04.797Z,20.68
2017-03-25T13:43:00.133Z,20.86
2017-03-25T13:47:55.672Z,23.14
2017-03-25T13:52:52.134Z,23.05
2017-03-25T13:57:49.292Z,23.33
2017-03-25T14:02:45.978Z,23.17
2017-03-25T14:07:42.711Z,22.88
2017-03-25T14:12:40.003Z,22.68
2017-03-25T14:17:36.702Z,22.97
2017-03-25T14:22:33.793Z,23.16
2017-03-25T14:27:29.807Z,23.91
2017-03-25T14:32:26.060Z,24.39
2017-03-25T14:37:23.874Z,24.50
2017-03-25T14:42:20.078Z,24.29
2017-03-25T14:47:16.975Z,24.77
2017-03-25T14:52:13.581Z,24.87
2017-03-25T14:57:10.137Z,25.16
2017-03-25T15:02:06.302Z,26.87
2017-03-25T15:07:02.217Z,26.96
2017-03-25T15:11:58.163Z,26.96
2017-03-25T15:16:54.268Z,27.52
2017-03-25T15:21:50.444Z,28.08
2017-03-25T15:26:46.846Z,29.99
2017-03-25T15:31:43.161Z,29.52
2017-03-25T15:36:39.646Z,29.70
2017-03-25T15:41:36.417Z,30.75
2017-03-25T15:46:32.641Z,30.46
2017-03-25T15:51:29.236Z,29.99
2017-03-25T15:56:27.836Z,30.46
2017-03-25T16:01:23.959Z,30.94
2017-03-25T16:06:20.552Z,31.23
2017-03-25T16:11:17.382Z,31.61
2017-03-25T16:16:14.282Z,32.65
2017-03-25T16:21:10.238Z,31.69
2017-03-25T16:26:06.716Z,31.50
2017-03-25T16:31:05.912Z,32.45
2017-03-25T16:36:01.721Z,32.45
2017-03-25T16:40:58.208Z,33.03
2017-03-25T16:45:54.632Z,34.36
2017-03-25T16:50:51.297Z,34.75
2017-03-25T16:55:47.885Z,35.22
2017-03-25T17:00:44.539Z,34.84
2017-03-25T17:05:41.527Z,34.54
2017-03-25T17:10:37.941Z,35.30
2017-03-25T17:15:34.238Z,35.87
2017-03-25T17:20:30.497Z,37.02
2017-03-25T17:25:26.951Z,37.57
2017-03-25T17:30:23.400Z,37.57
2017-03-25T17:35:20.857Z,36.81
2017-03-25T17:40:17.214Z,37.76
2017-03-25T17:45:13.507Z,37.74
2017-03-25T17:50:10.487Z,38.22
2017-03-25T17:55:06.901Z,40.03
2017-03-25T18:00:03.312Z,40.03
2017-03-25T18:04:59.610Z,40.22
2017-03-25T18:09:55.993Z,40.60
2017-03-25T18:14:52.540Z,42.30
2017-03-25T18:19:48.957Z,42.58
2017-03-25T18:24:45.410Z,42.96
2017-03-25T18:29:41.472Z,43.44
2017-03-25T18:34:37.917Z,44.39
2017-03-25T18:39:34.685Z,45.25
2017-03-25T18:44:31.511Z,46.68
2017-03-25T18:49:27.705Z,47.80
2017-03-25T18:54:24.036Z,48.75
2017-03-25T18:59:20.321Z,49.23
2017-03-25T19:04:19.565Z,50.46
2017-03-25T19:09:15.324Z,51.32
2017-03-25T19:14:12.106Z,52.47
2017-03-25T19:19:08.455Z,53.96
2017-03-25T19:24:04.801Z,55.01
2017-03-25T19:29:01.330Z,54.91
2017-03-25T19:33:58.031Z,55.68
2017-03-25T19:38:55.687Z,56.34
2017-03-25T19:43:51.777Z,56.72
2017-03-25T19:48:49.208Z,57.67
2017-03-25T19:53:45.412Z,58.15
2017-03-25T19:58:41.833Z,59.64
2017-03-25T20:03:38.032Z,60.21
2017-03-25T20:08:34.395Z,60.69
2017-03-25T20:13:30.569Z,60.97
2017-03-25T20:18:27.794Z,61.83
2017-03-25T20:23:24.155Z,63.45
2017-03-25T20:28:20.723Z,64.59
2017-03-25T20:33:17.340Z,66.02
2017-03-25T20:38:14.879Z,66.46
2017-03-25T20:43:11.055Z,67.03
2017-03-25T20:48:07.337Z,68.07
2017-03-25T20:53:03.794Z,68.84
2017-03-25T20:58:00.013Z,70.36
2017-03-25T21:02:56.688Z,71.46
2017-03-25T21:07:52.995Z,72.64
2017-03-25T21:12:49.340Z,74.03
2017-03-25T21:17:45.761Z,75.84
2017-03-25T21:22:42.281Z,77.17
2017-03-25T21:27:38.778Z,78.78
2017-03-25T21:32:37.581Z,80.68
2017-03-25T21:37:33.219Z,82.10
2017-03-25T21:42:29.625Z,83.01
2017-03-25T21:47:26.198Z,85.20
2017-03-25T21:52:22.573Z,85.77
2017-03-25T21:57:19.094Z,86.63
2017-03-25T22:02:16.343Z,87.86
2017-03-25T22:07:13.253Z,89.09
2017-03-25T22:12:09.535Z,89.86
2017-03-25T22:17:06.611Z,90.61
2017-03-25T22:22:03.804Z,91.56
2017-03-25T22:27:00.393Z,92.04
2017-03-25T22:31:56.801Z,93.51
2017-03-25T22:36:53.023Z,93.60
2017-03-25T22:41:49.535Z,93.84
2017-03-25T22:46:45.729Z,94.08
2017-03-25T22:51:42.298Z,94.56
2017-03-25T22:56:38.652Z,94.46
2017-03-25T23:01:35.616Z,94.74
2017-03-25T23:06:32.565Z,95.60
2017-03-25T23:11:29.688Z,95.70
2017-03-25T23:16:27.187Z,95.70
2017-03-25T23:21:23.545Z,95.60
2017-03-25T23:26:19.841Z,96.64
2017-03-25T23:31:16.148Z,96.36
2017-03-25T23:36:12.505Z,96.45
2017-03-25T23:41:09.045Z,96.74
2017-03-25T23:46:05.224Z,96.78
2017-03-25T23:51:01.467Z,96.78
2017-03-25T23:55:59.149Z,97.36
